createdAt,value
2019-02-10T00:01:57.819Z,20.23
2019-02-10T00:04:38.361Z,15.53
2019-02-10T00:07:24.254Z,16.47
2019-02-10T00:09:58.377Z,20.77
2019-02-10T00:12:31.064Z,21.33
2019-02-10T00:15:05.783Z,24.30
2019-02-10T00:17:39.611Z,22.58
2019-02-10T00:20:16.776Z,24.18
2019-02-10T00:22:53.167Z,24.82
2019-02-10T00:25:27.886Z,31.03
2019-02-10T00:28:02.415Z,25.27
2019-02-10T00:30:39.132Z,29.60
2019-02-10T00:33:14.644Z,23.38
2019-02-10T00:35:51.184Z,39.50
2019-02-10T00:38:27.043Z,26.00
2019-02-10T00:41:02.897Z,24.77
2019-02-10T00:43:37.341Z,27.23
2019-02-10T00:46:13.739Z,20.83
2019-02-10T00:48:49.047Z,23.73
2019-02-10T00:51:26.125Z,23.23
2019-02-10T00:54:00.069Z,19.80
2019-02-10T00:56:33.985Z,24.47
2019-02-10T00:59:11.205Z,22.40
2019-02-10T01:01:45.846Z,20.33
2019-02-10T01:04:22.116Z,23.40
2019-02-10T01:06:58.723Z,17.27
2019-02-10T01:09:34.270Z,21.87
2019-02-10T01:12:09.029Z,25.03
2019-02-10T01:14:47.472Z,25.53
2019-02-10T01:17:23.079Z,31.73
2019-02-10T01:19:57.672Z,25.50
2019-02-10T01:22:30.840Z,21.30
2019-02-10T01:25:05.925Z,17.97
2019-02-10T01:27:56.440Z,19.10
2019-02-10T01:30:28.207Z,19.60
2019-02-10T01:33:00.156Z,20.72
2019-02-10T01:35:32.672Z,20.73
2019-02-10T01:38:04.554Z,21.63
2019-02-10T01:40:36.580Z,24.93
2019-02-10T01:43:08.280Z,21.97
2019-02-10T01:45:40.065Z,29.33
2019-02-10T01:48:11.784Z,23.00
2019-02-10T01:50:43.410Z,22.07
2019-02-10T01:53:15.863Z,19.10
2019-02-10T01:55:47.563Z,16.87
2019-02-10T01:58:19.408Z,18.82
2019-02-10T02:00:51.209Z,18.77
2019-02-10T02:03:22.800Z,23.50
2019-02-10T02:05:54.847Z,25.87
2019-02-10T02:08:26.621Z,33.13
2019-02-10T02:10:59.205Z,31.93
2019-02-10T02:13:30.994Z,29.90
2019-02-10T02:16:04.367Z,25.23
2019-02-10T02:18:36.654Z,27.17
2019-02-10T02:21:09.383Z,23.77
2019-02-10T02:23:41.133Z,26.53
2019-02-10T02:26:13.322Z,21.07
2019-02-10T02:28:45.036Z,19.97
2019-02-10T02:31:16.814Z,18.83
2019-02-10T02:33:48.760Z,20.67
2019-02-10T02:36:20.527Z,18.37
2019-02-10T02:38:52.843Z,20.77
2019-02-10T02:41:24.880Z,17.70
2019-02-10T02:43:56.607Z,20.30
2019-02-10T02:46:28.215Z,17.93
2019-02-10T02:48:59.970Z,20.20
2019-02-10T02:51:32.171Z,19.53
2019-02-10T02:54:04.011Z,18.93
2019-02-10T02:56:35.690Z,23.73
2019-02-10T02:59:07.407Z,20.77
2019-02-10T03:01:39.529Z,23.13
2019-02-10T03:04:11.123Z,22.07
2019-02-10T03:06:46.188Z,20.10
2019-02-10T03:09:18.745Z,21.37
2019-02-10T03:11:50.546Z,25.20
2019-02-10T03:14:24.087Z,20.87
2019-02-10T03:16:55.947Z,23.70
2019-02-10T03:19:27.503Z,17.73
2019-02-10T03:22:02.754Z,17.43
2019-02-10T03:24:34.716Z,21.63
2019-02-10T03:27:06.448Z,24.67
2019-02-10T03:29:38.196Z,23.87
2019-02-10T03:32:09.902Z,22.50
2019-02-10T03:34:41.538Z,24.77
2019-02-10T03:37:13.494Z,29.03
2019-02-10T03:39:45.193Z,24.47
2019-02-10T03:42:17.074Z,23.23
2019-02-10T03:44:48.708Z,26.37
2019-02-10T03:47:22.193Z,24.73
2019-02-10T03:49:53.920Z,29.30
2019-02-10T03:52:26.678Z,29.63
2019-02-10T03:54:58.369Z,27.07
2019-02-10T03:57:29.867Z,28.47
2019-02-10T04:00:01.641Z,24.80
2019-02-10T04:02:33.324Z,24.63
2019-02-10T04:05:04.984Z,25.17
2019-02-10T04:07:36.930Z,27.93
2019-02-10T04:10:09.523Z,23.13
2019-02-10T04:12:41.224Z,22.77
2019-02-10T04:15:13.074Z,26.20
2019-02-10T04:17:44.727Z,27.70
2019-02-10T04:20:16.468Z,28.60
2019-02-10T04:22:48.329Z,23.83
2019-02-10T04:25:20.084Z,24.77
2019-02-10T04:27:51.705Z,28.77
2019-02-10T04:30:23.444Z,31.13
2019-02-10T04:32:55.148Z,26.13
2019-02-10T04:35:26.885Z,31.13
2019-02-10T04:37:58.557Z,27.50
2019-02-10T04:40:30.131Z,29.50
2019-02-10T04:43:01.723Z,24.83
2019-02-10T04:45:33.480Z,23.50
2019-02-10T04:48:05.191Z,26.03
2019-02-10T04:50:36.735Z,32.23
2019-02-10T04:53:08.366Z,24.93
2019-02-10T04:55:40.194Z,27.20
2019-02-10T04:58:11.963Z,27.80
2019-02-10T05:00:43.539Z,24.73
2019-02-10T05:03:15.317Z,26.20
2019-02-10T05:05:47.156Z,27.60
2019-02-10T05:08:19.278Z,20.50
2019-02-10T05:10:51.056Z,27.87
2019-02-10T05:13:22.842Z,24.57
2019-02-10T05:15:54.472Z,28.00
2019-02-10T05:18:26.258Z,35.20
2019-02-10T05:20:58.042Z,26.87
2019-02-10T05:23:29.968Z,27.87
2019-02-10T05:26:02.185Z,27.77
2019-02-10T05:28:34.325Z,27.17
2019-02-10T05:31:06.902Z,30.63
2019-02-10T05:33:38.655Z,45.13
2019-02-10T05:36:10.335Z,44.17
2019-02-10T05:38:42.058Z,32.27
2019-02-10T05:41:13.805Z,46.37
2019-02-10T05:43:45.567Z,36.87
2019-02-10T05:46:17.436Z,33.87
2019-02-10T05:48:49.739Z,38.13
2019-02-10T05:51:21.661Z,30.90
2019-02-10T05:53:53.567Z,28.67
2019-02-10T05:56:25.597Z,29.10
2019-02-10T05:58:57.558Z,40.17
2019-02-10T06:02:06.198Z,28.57
2019-02-10T06:04:43.086Z,34.63
2019-02-10T06:07:18.451Z,29.20
2019-02-10T06:09:50.284Z,28.97
2019-02-10T06:12:26.070Z,33.90
2019-02-10T06:14:57.908Z,28.30
2019-02-10T06:17:29.582Z,31.07
2019-02-10T06:20:01.690Z,29.73
2019-02-10T06:22:33.615Z,27.70
2019-02-10T06:25:05.627Z,27.03
2019-02-10T06:27:37.539Z,28.20
2019-02-10T06:30:10.301Z,27.40
2019-02-10T06:32:42.692Z,31.60
2019-02-10T06:35:17.714Z,34.00
2019-02-10T06:37:49.614Z,32.03
2019-02-10T06:40:21.300Z,33.73
2019-02-10T06:42:53.092Z,32.77
2019-02-10T06:45:24.762Z,30.63
2019-02-10T06:47:57.912Z,34.23
2019-02-10T06:50:29.609Z,32.97
2019-02-10T06:53:01.509Z,34.93
2019-02-10T06:55:33.532Z,30.43
2019-02-10T06:58:05.393Z,33.80
2019-02-10T07:00:50.370Z,37.80
2019-02-10T07:03:56.554Z,31.90
2019-02-10T07:06:28.482Z,38.67
2019-02-10T07:09:04.591Z,41.40
2019-02-10T07:11:36.197Z,39.60
2019-02-10T07:14:35.400Z,45.77
2019-02-10T07:17:50.555Z,33.10
2019-02-10T07:20:44.477Z,45.87
2019-02-10T07:24:25.728Z,43.33
2019-02-10T07:26:59.880Z,43.33
2019-02-10T07:30:29.513Z,53.47
2019-02-10T07:33:03.812Z,37.03
2019-02-10T07:36:17.252Z,36.00
2019-02-10T07:39:56.023Z,32.37
2019-02-10T07:43:15.624Z,38.47
2019-02-10T07:46:50.901Z,31.73
2019-02-10T07:49:46.722Z,28.77
2019-02-10T07:52:52.468Z,27.23
2019-02-10T07:56:28.915Z,29.60
2019-02-10T07:59:51.831Z,35.43
2019-02-10T08:03:28.659Z,37.10
2019-02-10T08:06:47.570Z,27.23
2019-02-10T08:10:17.666Z,24.97
2019-02-10T08:13:35.350Z,30.47
2019-02-10T08:17:28.815Z,19.67
2019-02-10T08:20:54.055Z,12.80
2019-02-10T08:24:06.610Z,21.90
2019-02-10T08:27:29.913Z,12.97
2019-02-10T08:30:42.322Z,15.93
2019-02-10T08:33:45.064Z,14.07
2019-02-10T08:36:53.364Z,16.27
2019-02-10T08:39:58.694Z,15.03
2019-02-10T08:43:36.493Z,9.90
2019-02-10T08:46:48.441Z,16.83
2019-02-10T08:49:50.951Z,14.53
2019-02-10T08:53:03.627Z,16.17
2019-02-10T08:55:35.572Z,18.77
2019-02-10T08:58:07.564Z,12.80
2019-02-10T09:00:39.540Z,11.67
2019-02-10T09:03:19.214Z,11.53
2019-02-10T09:06:03.858Z,11.77
2019-02-10T09:08:36.468Z,8.87
2019-02-10T09:11:08.501Z,12.50
2019-02-10T09:13:40.586Z,9.70
2019-02-10T09:16:15.701Z,8.97
2019-02-10T09:18:49.109Z,10.20
2019-02-10T09:21:21.286Z,11.63
2019-02-10T09:23:53.955Z,8.53
2019-02-10T09:26:26.106Z,7.97
2019-02-10T09:28:58.288Z,9.70
2019-02-10T09:31:30.708Z,6.43
2019-02-10T09:34:02.667Z,11.80
2019-02-10T09:36:34.651Z,8.53
2019-02-10T09:39:10.965Z,6.57
2019-02-10T09:41:40.975Z,8.03
2019-02-10T09:44:13.058Z,10.20
2019-02-10T09:46:45.030Z,7.10
2019-02-10T09:49:16.709Z,11.70
2019-02-10T09:51:48.780Z,8.13
2019-02-10T09:54:20.678Z,7.60
2019-02-10T09:56:52.947Z,6.90
2019-02-10T09:59:26.084Z,11.70
2019-02-10T10:01:57.887Z,11.37
2019-02-10T10:04:29.806Z,7.40
2019-02-10T10:07:01.550Z,9.33
2019-02-10T10:09:33.472Z,9.63
2019-02-10T10:12:05.427Z,6.93
2019-02-10T10:14:37.237Z,11.00
2019-02-10T10:17:08.791Z,11.77
2019-02-10T10:19:44.746Z,10.70
2019-02-10T10:22:16.543Z,10.60
2019-02-10T10:24:50.507Z,6.40
2019-02-10T10:27:21.539Z,7.20
2019-02-10T10:29:53.316Z,9.37
2019-02-10T10:32:24.909Z,11.07
2019-02-10T10:34:56.409Z,7.23
2019-02-10T10:37:28.087Z,8.30
2019-02-10T10:39:59.984Z,9.83
2019-02-10T10:42:40.317Z,9.13
2019-02-10T10:45:12.762Z,8.57
2019-02-10T10:47:44.583Z,6.53
2019-02-10T10:50:16.644Z,10.37
2019-02-10T10:52:48.225Z,7.43
2019-02-10T10:55:19.854Z,6.77
2019-02-10T10:57:52.728Z,10.37
2019-02-10T11:00:24.279Z,9.83
2019-02-10T11:02:56.098Z,5.87
2019-02-10T11:05:27.877Z,11.33
2019-02-10T11:07:59.229Z,8.70
2019-02-10T11:10:30.622Z,7.73
2019-02-10T11:13:02.230Z,7.03
2019-02-10T11:15:34.172Z,9.20
2019-02-10T11:18:10.733Z,6.93
2019-02-10T11:20:42.322Z,8.20
2019-02-10T11:23:14.845Z,4.80
2019-02-10T11:25:46.398Z,5.67
2019-02-10T11:28:17.930Z,5.93
2019-02-10T11:30:49.417Z,7.17
2019-02-10T11:33:21.831Z,6.33
2019-02-10T11:35:54.169Z,8.47
2019-02-10T11:38:26.458Z,7.27
2019-02-10T11:40:58.169Z,8.57
2019-02-10T11:43:29.775Z,7.67
2019-02-10T11:46:02.008Z,8.27
2019-02-10T11:48:34.221Z,7.77
2019-02-10T11:51:06.255Z,6.37
2019-02-10T11:53:38.569Z,5.63
2019-02-10T11:56:10.184Z,6.57
2019-02-10T11:58:41.788Z,7.17
2019-02-10T12:01:13.965Z,11.10
2019-02-10T12:03:45.865Z,17.07
2019-02-10T12:06:17.777Z,6.87
2019-02-10T12:08:49.724Z,6.37
2019-02-10T12:11:21.805Z,6.77
2019-02-10T12:13:54.267Z,7.77
2019-02-10T12:16:27.124Z,10.07
2019-02-10T12:19:00.269Z,5.77
2019-02-10T12:21:33.360Z,5.70
2019-02-10T12:24:06.057Z,4.77
2019-02-10T12:26:38.879Z,7.77
2019-02-10T12:29:10.558Z,5.10
2019-02-10T12:31:42.002Z,6.87
2019-02-10T12:34:13.922Z,5.40
2019-02-10T12:36:45.578Z,6.10
2019-02-10T12:39:17.222Z,4.90
2019-02-10T12:41:49.429Z,6.47
2019-02-10T12:44:21.267Z,4.77
2019-02-10T12:46:52.853Z,9.60
2019-02-10T12:49:24.542Z,7.30
2019-02-10T12:51:56.204Z,8.20
2019-02-10T12:54:28.201Z,7.37
2019-02-10T12:56:59.899Z,8.10
2019-02-10T12:59:31.593Z,6.97
2019-02-10T13:02:06.680Z,8.80
2019-02-10T13:04:38.298Z,10.17
2019-02-10T13:07:10.092Z,6.70
2019-02-10T13:09:41.880Z,8.60
2019-02-10T13:12:17.541Z,5.87
2019-02-10T13:14:46.821Z,9.30
2019-02-10T13:17:18.648Z,8.13
2019-02-10T13:19:50.726Z,9.40
2019-02-10T13:22:22.634Z,9.00
2019-02-10T13:24:59.077Z,7.77
2019-02-10T13:27:30.683Z,8.00
2019-02-10T13:30:02.205Z,7.67
2019-02-10T13:32:34.339Z,7.70
2019-02-10T13:35:06.869Z,7.20
2019-02-10T13:37:38.787Z,6.90
2019-02-10T13:40:19.074Z,6.53
2019-02-10T13:42:51.164Z,6.57
2019-02-10T13:45:23.521Z,6.33
2019-02-10T13:47:55.913Z,10.23
2019-02-10T13:50:27.866Z,8.40
2019-02-10T13:52:59.236Z,6.17
2019-02-10T13:55:31.162Z,12.07
2019-02-10T13:58:02.760Z,7.77
2019-02-10T14:00:34.511Z,5.00
2019-02-10T14:03:05.828Z,12.07
2019-02-10T14:05:37.602Z,10.07
2019-02-10T14:08:09.177Z,6.63
2019-02-10T14:10:40.781Z,9.10
2019-02-10T14:13:12.435Z,5.77
2019-02-10T14:15:44.176Z,6.80
2019-02-10T14:18:16.039Z,8.77
2019-02-10T14:20:48.090Z,12.10
2019-02-10T14:23:19.985Z,11.67
2019-02-10T14:25:56.678Z,6.10
2019-02-10T14:28:28.510Z,5.80
2019-02-10T14:31:00.369Z,8.10
2019-02-10T14:33:38.626Z,8.53
2019-02-10T14:36:06.319Z,6.07
2019-02-10T14:38:38.612Z,7.47
2019-02-10T14:41:20.072Z,6.03
2019-02-10T14:43:51.950Z,9.27
2019-02-10T14:46:24.425Z,6.63
2019-02-10T14:48:56.703Z,9.37
2019-02-10T14:51:28.991Z,7.73
2019-02-10T14:54:01.177Z,8.07
2019-02-10T14:56:33.478Z,6.63
2019-02-10T14:59:05.830Z,6.80
2019-02-10T15:01:38.026Z,7.17
2019-02-10T15:04:10.738Z,10.63
2019-02-10T15:06:43.345Z,7.13
2019-02-10T15:09:15.851Z,6.77
2019-02-10T15:11:54.192Z,5.43
2019-02-10T15:14:26.598Z,8.97
2019-02-10T15:16:59.022Z,6.67
2019-02-10T15:19:31.459Z,8.77
2019-02-10T15:22:03.658Z,9.93
2019-02-10T15:24:36.007Z,8.70
2019-02-10T15:27:10.076Z,5.60
2019-02-10T15:29:42.461Z,7.60
2019-02-10T15:32:16.851Z,7.87
2019-02-10T15:34:48.739Z,9.80
2019-02-10T15:37:20.809Z,8.43
2019-02-10T15:39:53.058Z,7.27
2019-02-10T15:42:25.751Z,6.40
2019-02-10T15:44:58.448Z,8.07
2019-02-10T15:47:30.763Z,7.00
2019-02-10T15:50:04.148Z,8.67
2019-02-10T15:52:40.954Z,5.97
2019-02-10T15:55:13.718Z,7.10
2019-02-10T15:57:46.208Z,8.43
2019-02-10T16:00:22.750Z,11.40
2019-02-10T16:02:55.360Z,6.10
2019-02-10T16:05:27.874Z,8.17
2019-02-10T16:08:00.845Z,10.63
2019-02-10T16:10:33.498Z,6.23
2019-02-10T16:13:07.308Z,7.03
2019-02-10T16:15:40.137Z,10.33
2019-02-10T16:18:15.786Z,11.13
2019-02-10T16:20:52.523Z,10.20
2019-02-10T16:23:25.911Z,7.13
2019-02-10T16:25:59.793Z,8.70
2019-02-10T16:28:39.904Z,13.30
2019-02-10T16:31:12.762Z,8.90
2019-02-10T16:33:54.449Z,8.37
2019-02-10T16:36:27.570Z,8.17
2019-02-10T16:39:16.347Z,7.37
2019-02-10T16:41:52.297Z,8.37
2019-02-10T16:44:25.172Z,7.97
2019-02-10T16:46:58.108Z,11.60
2019-02-10T16:49:31.317Z,8.37
2019-02-10T16:52:03.974Z,10.33
2019-02-10T16:54:36.618Z,7.07
2019-02-10T16:57:13.623Z,7.83
2019-02-10T16:59:46.558Z,9.77
2019-02-10T17:02:20.081Z,8.60
2019-02-10T17:04:53.588Z,8.17
2019-02-10T17:07:27.361Z,7.10
2019-02-10T17:10:00.736Z,7.83
2019-02-10T17:12:33.750Z,10.10
2019-02-10T17:15:06.756Z,9.40
2019-02-10T17:17:39.837Z,10.83
2019-02-10T17:20:22.694Z,8.37
2019-02-10T17:22:56.348Z,7.13
2019-02-10T17:25:29.443Z,12.43
2019-02-10T17:28:07.280Z,8.07
2019-02-10T17:30:40.694Z,7.20
2019-02-10T17:33:13.894Z,8.43
2019-02-10T17:35:47.301Z,8.77
2019-02-10T17:38:21.633Z,9.57
2019-02-10T17:41:11.541Z,11.90
2019-02-10T17:43:45.035Z,8.03
2019-02-10T17:46:23.105Z,7.90
2019-02-10T17:49:01.324Z,10.13
2019-02-10T17:51:36.197Z,8.90
2019-02-10T17:54:11.944Z,8.27
2019-02-10T17:56:46.009Z,10.30
2019-02-10T17:59:22.077Z,9.60
2019-02-10T18:02:01.467Z,10.10
2019-02-10T18:04:37.484Z,8.13
2019-02-10T18:07:08.974Z,10.53
2019-02-10T18:09:46.066Z,12.63
2019-02-10T18:12:18.837Z,12.40
2019-02-10T18:15:19.439Z,10.50
2019-02-10T18:18:00.774Z,8.30
2019-02-10T18:21:04.180Z,7.10
2019-02-10T18:23:53.062Z,7.23
2019-02-10T18:26:54.087Z,10.70
2019-02-10T18:29:52.559Z,14.93
2019-02-10T18:32:51.665Z,12.67
2019-02-10T18:35:46.432Z,12.10
2019-02-10T18:38:30.538Z,12.17
2019-02-10T18:41:24.711Z,11.73
2019-02-10T18:44:15.265Z,8.97
2019-02-10T18:46:57.708Z,6.50
2019-02-10T18:50:04.356Z,12.50
2019-02-10T18:52:55.581Z,10.40
2019-02-10T18:55:38.679Z,10.97
2019-02-10T18:58:30.453Z,12.07
2019-02-10T19:01:31.032Z,10.43
2019-02-10T19:04:28.423Z,9.97
2019-02-10T19:07:31.792Z,11.33
2019-02-10T19:10:22.783Z,13.30
2019-02-10T19:13:17.295Z,13.67
2019-02-10T19:16:06.810Z,10.93
2019-02-10T19:19:10.451Z,13.40
2019-02-10T19:22:00.597Z,14.73
2019-02-10T19:24:57.836Z,10.03
2019-02-10T19:27:50.400Z,12.40
2019-02-10T19:30:45.371Z,11.20
2019-02-10T19:33:39.897Z,10.10
2019-02-10T19:37:01.141Z,11.87
2019-02-10T19:39:52.621Z,13.23
2019-02-10T19:42:47.865Z,11.50
2019-02-10T19:45:43.308Z,11.87
2019-02-10T19:48:39.055Z,12.03
2019-02-10T19:51:24.464Z,11.83
2019-02-10T19:54:19.645Z,15.03
2019-02-10T19:57:28.928Z,13.67
2019-02-10T20:00:36.731Z,14.87
2019-02-10T20:03:32.904Z,13.80
2019-02-10T20:06:33.277Z,12.10
2019-02-10T20:09:28.977Z,15.83
2019-02-10T20:12:27.339Z,14.30
2019-02-10T20:15:35.994Z,15.13
2019-02-10T20:18:34.979Z,15.33
2019-02-10T20:21:29.323Z,10.80
2019-02-10T20:24:21.306Z,10.57
2019-02-10T20:27:27.625Z,13.73
2019-02-10T20:30:12.356Z,12.57
2019-02-10T20:33:05.476Z,13.30
2019-02-10T20:35:57.640Z,16.83
2019-02-10T20:38:48.518Z,13.10
2019-02-10T20:41:43.453Z,16.20
2019-02-10T20:44:33.873Z,14.80
2019-02-10T20:47:31.413Z,16.97
2019-02-10T20:50:25.514Z,19.27
2019-02-10T20:53:17.891Z,11.53
2019-02-10T20:56:08.414Z,19.17
2019-02-10T20:58:55.062Z,13.30
2019-02-10T21:01:51.377Z,12.43
2019-02-10T21:04:49.905Z,12.07
2019-02-10T21:07:47.664Z,15.57
2019-02-10T21:10:54.334Z,14.07
2019-02-10T21:13:45.079Z,8.80
2019-02-10T21:16:35.576Z,12.23
2019-02-10T21:19:14.665Z,17.13
2019-02-10T21:22:05.769Z,13.80
2019-02-10T21:25:05.292Z,13.40
2019-02-10T21:27:48.452Z,13.40
2019-02-10T21:30:41.718Z,13.50
2019-02-10T21:33:22.174Z,17.67
2019-02-10T21:36:09.806Z,13.10
2019-02-10T21:38:51.560Z,13.70
2019-02-10T21:41:34.471Z,16.23
2019-02-10T21:44:29.541Z,16.63
2019-02-10T21:47:12.622Z,13.20
2019-02-10T21:49:45.516Z,14.77
2019-02-10T21:52:17.392Z,15.17
2019-02-10T21:54:52.570Z,14.17
2019-02-10T21:57:24.493Z,12.77
2019-02-10T21:59:57.843Z,14.03
2019-02-10T22:02:29.812Z,11.70
2019-02-10T22:05:01.965Z,11.03
2019-02-10T22:07:33.821Z,13.83
2019-02-10T22:10:06.196Z,14.00
2019-02-10T22:12:40.085Z,13.50
2019-02-10T22:15:12.098Z,12.53
2019-02-10T22:17:43.660Z,15.87
2019-02-10T22:20:15.252Z,12.00
2019-02-10T22:22:46.707Z,9.63
2019-02-10T22:25:18.703Z,11.80
2019-02-10T22:27:50.757Z,12.27
2019-02-10T22:30:22.359Z,12.17
2019-02-10T22:32:54.085Z,9.87
2019-02-10T22:35:25.997Z,11.13
2019-02-10T22:37:58.105Z,13.23
2019-02-10T22:40:29.759Z,13.43
2019-02-10T22:43:03.295Z,12.60
2019-02-10T22:45:35.390Z,10.67
2019-02-10T22:48:06.883Z,12.50
2019-02-10T22:50:38.321Z,7.40
2019-02-10T22:53:10.056Z,10.97
2019-02-10T22:55:41.868Z,10.50
2019-02-10T22:58:13.980Z,13.43
2019-02-10T23:01:03.359Z,13.60
2019-02-10T23:03:35.340Z,12.70
2019-02-10T23:06:08.442Z,16.57
2019-02-10T23:08:39.978Z,10.13
2019-02-10T23:11:11.531Z,15.53
2019-02-10T23:13:42.989Z,15.07
2019-02-10T23:16:14.514Z,13.50
2019-02-10T23:18:45.925Z,9.83
2019-02-10T23:21:17.299Z,12.83
2019-02-10T23:23:48.815Z,11.50
2019-02-10T23:26:20.436Z,11.30
2019-02-10T23:28:51.785Z,9.77
2019-02-10T23:31:23.223Z,13.17
2019-02-10T23:33:54.787Z,11.10
2019-02-10T23:36:26.549Z,11.87
2019-02-10T23:38:58.163Z,11.03
2019-02-10T23:41:30.030Z,15.03
2019-02-10T23:44:06.123Z,15.53
2019-02-10T23:46:37.889Z,13.80
2019-02-10T23:49:09.844Z,12.40
2019-02-10T23:51:41.685Z,11.23
2019-02-10T23:54:14.073Z,12.97
2019-02-10T23:56:47.201Z,13.93
2019-02-10T23:59:19.196Z,10.87
